Terminal Aerodrome Forecast
Issued by NWS

Home | Current Version | Previous Version | Graphics & Text | Print | Product List | Glossary On
Versions: 1 2 3 4 5 6 7 8 9 10 11 12 13 14 15 16 17 18 19 20 21 22 23 24 25 26 27 28 29 30 31 32 33 34
000
FTUS43 KLOT 280300 AAA
TAFORD
TAF AMD
KORD 280300Z 2803/2906 06006KT P6SM FEW120 BKN250
     FM281400 09008KT P6SM SCT100 BKN150
     FM281900 09010KT P6SM SCT060 OVC150
     FM290000 10011KT P6SM VCSH OVC050
      TEMPO 2903/2906 -SHRA=

USA.gov is the U.S. government's official web portal to all federal, state and local government web resources and services.